createdAt,value
2023-04-18T00:03:49.687Z,1017.8
2023-04-18T00:09:56.071Z,1017.8
2023-04-18T00:16:01.461Z,1017.8
2023-04-18T00:22:07.082Z,1017.7
2023-04-18T00:28:13.084Z,1017.8
2023-04-18T00:34:18.640Z,1017.8
2023-04-18T00:40:24.204Z,1017.8
2023-04-18T00:46:30.573Z,1017.8
2023-04-18T00:52:36.208Z,1017.7
2023-04-18T00:58:41.702Z,1017.7
2023-04-18T01:04:47.171Z,1017.7
2023-04-18T01:10:52.643Z,1017.7
2023-04-18T01:16:58.218Z,1017.6
2023-04-18T01:23:03.802Z,1017.6
2023-04-18T01:29:08.953Z,1017.6
2023-04-18T01:35:14.957Z,1017.6
2023-04-18T01:41:21.127Z,1017.6
2023-04-18T01:47:27.332Z,1017.6
2023-04-18T01:53:33.318Z,1017.6
2023-04-18T01:59:38.491Z,1017.5
2023-04-18T02:05:44.204Z,1017.5
2023-04-18T02:11:49.860Z,1017.5
2023-04-18T02:17:55.687Z,1017.5
2023-04-18T02:24:01.774Z,1017.6
2023-04-18T02:30:07.957Z,1017.6
2023-04-18T02:36:13.923Z,1017.6
2023-04-18T02:42:19.085Z,1017.6
2023-04-18T02:48:25.298Z,1017.6
2023-04-18T02:54:30.647Z,1017.6
2023-04-18T03:00:36.421Z,1017.5
2023-04-18T03:06:41.822Z,1017.5
2023-04-18T03:12:48.186Z,1017.5
2023-04-18T03:18:53.948Z,1017.6
2023-04-18T03:24:59.310Z,1017.5
2023-04-18T03:31:05.327Z,1017.5
2023-04-18T03:37:11.162Z,1017.5
2023-04-18T03:43:16.638Z,1017.4
2023-04-18T03:49:22.416Z,1017.4
2023-04-18T03:55:27.830Z,1017.5
2023-04-18T04:01:33.491Z,1017.5
2023-04-18T04:07:39.220Z,1017.5
2023-04-18T04:13:44.575Z,1017.4
2023-04-18T04:19:49.940Z,1017.5
2023-04-18T04:25:55.663Z,1017.5
2023-04-18T04:32:01.481Z,1017.5
2023-04-18T04:38:07.473Z,1017.5
2023-04-18T04:44:13.694Z,1017.6
2023-04-18T04:50:19.455Z,1017.5
2023-04-18T04:56:25.221Z,1017.6
2023-04-18T05:02:31.274Z,1017.6
2023-04-18T05:08:36.993Z,1017.6
2023-04-18T05:14:42.493Z,1017.6
2023-04-18T05:20:48.143Z,1017.6
2023-04-18T05:26:53.515Z,1017.6
2023-04-18T05:32:59.081Z,1017.7
2023-04-18T05:39:05.599Z,1017.7
2023-04-18T05:45:10.995Z,1017.7
2023-04-18T05:51:16.747Z,1017.8
2023-04-18T05:57:22.938Z,1017.8
2023-04-18T06:03:29.275Z,1017.9
2023-04-18T06:09:34.903Z,1017.9
2023-04-18T06:15:40.470Z,1018
2023-04-18T06:21:46.241Z,1018
2023-04-18T06:27:52.084Z,1018.1
2023-04-18T06:33:57.388Z,1018.1
2023-04-18T06:40:03.171Z,1018.2
2023-04-18T06:46:08.843Z,1018.2
2023-04-18T06:52:14.958Z,1018.2
2023-04-18T06:58:20.564Z,1018.2
2023-04-18T07:04:26.311Z,1018.2
2023-04-18T07:10:32.476Z,1018.2
2023-04-18T07:16:37.750Z,1018.2
2023-04-18T07:22:43.633Z,1018.2
2023-04-18T07:28:49.215Z,1018.2
2023-04-18T07:34:55.018Z,1018.2
2023-04-18T07:41:00.172Z,1018.2
2023-04-18T07:47:05.923Z,1018.2
2023-04-18T07:53:11.157Z,1018.2
2023-04-18T07:59:17.028Z,1018.2
2023-04-18T08:05:23.129Z,1018.2
2023-04-18T08:11:28.455Z,1018.3
2023-04-18T08:17:34.193Z,1018.3
2023-04-18T08:23:39.410Z,1018.3
2023-04-18T08:29:45.203Z,1018.4
2023-04-18T08:35:51.017Z,1018.4
2023-04-18T08:41:56.905Z,1018.5
2023-04-18T08:48:02.877Z,1018.6
2023-04-18T08:54:08.453Z,1018.6
2023-04-18T09:00:14.427Z,1018.6
2023-04-18T09:06:19.606Z,1018.7
2023-04-18T09:12:24.788Z,1018.8
2023-04-18T09:18:30.304Z,1018.8
2023-04-18T09:24:36.087Z,1018.8
2023-04-18T09:30:41.899Z,1018.8
2023-04-18T09:36:48.067Z,1018.8
2023-04-18T09:42:53.685Z,1018.7
2023-04-18T09:48:59.040Z,1018.8
2023-04-18T09:55:05.213Z,1018.8
2023-04-18T10:01:10.814Z,1018.7
2023-04-18T10:07:16.936Z,1018.7
2023-04-18T10:13:21.900Z,1018.7
2023-04-18T10:19:28.143Z,1018.7
2023-04-18T10:25:33.705Z,1018.7
2023-04-18T10:31:39.167Z,1018.6
2023-04-18T10:37:44.796Z,1018.5
2023-04-18T10:43:50.165Z,1018.6
2023-04-18T10:49:55.803Z,1018.7
2023-04-18T10:56:00.916Z,1018.6
2023-04-18T11:02:06.568Z,1018.5
2023-04-18T11:08:12.869Z,1018.5
2023-04-18T11:14:18.530Z,1018.5
2023-04-18T11:20:23.814Z,1018.6
2023-04-18T11:26:29.445Z,1018.5
2023-04-18T11:32:35.205Z,1018.5
2023-04-18T11:38:40.798Z,1018.5
2023-04-18T11:44:46.568Z,1018.6
2023-04-18T11:50:52.152Z,1018.6
2023-04-18T11:56:57.530Z,1018.6
2023-04-18T12:03:03.780Z,1018.6
2023-04-18T12:09:09.859Z,1018.6
2023-04-18T12:15:15.407Z,1018.6
2023-04-18T12:21:21.099Z,1018.7
2023-04-18T12:27:26.560Z,1018.6
2023-04-18T12:33:32.453Z,1018.6
2023-04-18T12:39:37.906Z,1018.6
2023-04-18T12:45:44.096Z,1018.6
2023-04-18T12:51:49.857Z,1018.6
2023-04-18T12:57:55.232Z,1018.6
2023-04-18T13:04:13.332Z,1018.5
2023-04-18T13:10:19.131Z,1018.6
2023-04-18T13:16:24.682Z,1018.5
2023-04-18T13:22:30.265Z,1018.6
2023-04-18T13:28:35.433Z,1018.5
2023-04-18T13:34:40.947Z,1018.6
2023-04-18T13:40:47.003Z,1018.6
2023-04-18T13:46:56.387Z,1018.6
2023-04-18T13:53:02.234Z,1018.6
2023-04-18T13:59:08.218Z,1018.6
2023-04-18T14:05:14.005Z,1018.7
2023-04-18T14:11:19.368Z,1018.7
2023-04-18T14:17:25.776Z,1018.7
2023-04-18T14:23:30.908Z,1018.8
2023-04-18T14:29:36.487Z,1018.8
2023-04-18T14:35:42.413Z,1018.8
2023-04-18T14:41:48.024Z,1018.8
2023-04-18T14:47:53.856Z,1018.8
2023-04-18T14:53:59.956Z,1018.9
2023-04-18T15:00:05.587Z,1018.9
2023-04-18T15:06:10.731Z,1018.9
2023-04-18T15:12:16.266Z,1018.9
2023-04-18T15:18:21.888Z,1018.9
2023-04-18T15:24:27.396Z,1018.9
2023-04-18T15:30:33.600Z,1018.9
2023-04-18T15:36:39.170Z,1018.9
2023-04-18T15:42:44.590Z,1018.9
2023-04-18T15:48:49.688Z,1019
2023-04-18T15:54:55.269Z,1019.1
2023-04-18T16:01:00.842Z,1019.1
2023-04-18T16:07:06.832Z,1019.1
2023-04-18T16:13:12.052Z,1019.1
2023-04-18T16:19:18.360Z,1019.1
2023-04-18T16:25:24.359Z,1019
2023-04-18T16:31:30.189Z,1019
2023-04-18T16:37:35.572Z,1019
2023-04-18T16:43:41.330Z,1019
2023-04-18T16:49:47.061Z,1019.1
2023-04-18T16:55:52.705Z,1019.1
2023-04-18T17:01:58.730Z,1019.1
2023-04-18T17:08:04.395Z,1019.2
2023-04-18T17:14:09.509Z,1019.1
2023-04-18T17:20:15.750Z,1019.2
2023-04-18T17:26:21.590Z,1019.3
2023-04-18T17:32:27.608Z,1019.2
2023-04-18T17:38:33.174Z,1019.2
2023-04-18T17:44:38.726Z,1019.3
2023-04-18T17:50:44.230Z,1019.4
2023-04-18T17:56:49.658Z,1019.4
2023-04-18T18:02:55.368Z,1019.4
2023-04-18T18:09:00.600Z,1019.5
2023-04-18T18:15:05.964Z,1019.6
2023-04-18T18:21:11.548Z,1019.6
2023-04-18T18:27:16.934Z,1019.7
2023-04-18T18:33:22.848Z,1019.7
2023-04-18T18:39:28.103Z,1019.8
2023-04-18T18:45:33.220Z,1019.9
2023-04-18T18:51:38.167Z,1019.8
2023-04-18T18:57:43.277Z,1019.9
2023-04-18T19:03:49.000Z,1019.9
2023-04-18T19:09:55.114Z,1019.9
2023-04-18T19:16:00.444Z,1020
2023-04-18T19:22:05.752Z,1020
2023-04-18T19:28:11.008Z,1020
2023-04-18T19:34:16.346Z,1020
2023-04-18T19:40:21.717Z,1020
2023-04-18T19:46:27.279Z,1020
2023-04-18T19:52:32.855Z,1020
2023-04-18T19:58:37.608Z,1020
2023-04-18T20:04:42.857Z,1020
2023-04-18T20:10:48.793Z,1020
2023-04-18T20:16:54.016Z,1020
2023-04-18T20:23:00.264Z,1019.9
2023-04-18T20:29:05.299Z,1019.9
2023-04-18T20:35:10.854Z,1020
2023-04-18T20:41:16.990Z,1020
2023-04-18T20:47:22.817Z,1020
2023-04-18T20:53:28.328Z,1020
2023-04-18T20:59:34.377Z,1020
2023-04-18T21:05:39.578Z,1020
2023-04-18T21:11:45.308Z,1020
2023-04-18T21:17:50.716Z,1020
2023-04-18T21:23:56.031Z,1020
2023-04-18T21:30:04.721Z,1020
2023-04-18T21:36:10.201Z,1020
2023-04-18T21:42:15.813Z,1020
2023-04-18T21:48:21.145Z,1020
2023-04-18T21:54:26.986Z,1020
2023-04-18T22:00:32.682Z,1020
2023-04-18T22:06:38.102Z,1020
2023-04-18T22:12:43.920Z,1020
2023-04-18T22:18:49.279Z,1020
2023-04-18T22:24:54.632Z,1019.9
2023-04-18T22:31:00.226Z,1019.9
2023-04-18T22:37:06.141Z,1019.9
2023-04-18T22:43:12.121Z,1019.9
2023-04-18T22:49:18.007Z,1019.9
2023-04-18T22:55:24.093Z,1019.9
2023-04-18T23:01:30.191Z,1019.9
2023-04-18T23:07:35.844Z,1019.9
2023-04-18T23:13:41.475Z,1019.9
2023-04-18T23:19:46.998Z,1019.9
2023-04-18T23:25:52.613Z,1019.8
2023-04-18T23:31:58.559Z,1019.8
2023-04-18T23:38:04.530Z,1019.8
2023-04-18T23:44:10.113Z,1019.7
2023-04-18T23:50:16.073Z,1019.7
2023-04-18T23:56:21.925Z,1019.7
